Sea Isle City, New Jersey
Current Conditions -  °F | °C
As of 11:35 AM on Thursday 29 Jan 2015 (Local Time) from KWWD Reporting Station
Clear Clear  
Wind Chill: 27°   Ceiling: Unl
Heat Index: 34°   Visibility: 10mi
Dew Point: 16°   Wind: 8mph
Humidity: 48%   Direction: 130°SE
Pressure: 30.27"   Gusts: NA
Location:  39.15°N, 74.69°W
Report Text: KWWD 291635Z AUTO 13007KT 10SM CLR 01/M09 A3027 RMK AO1
Loading
Personal Weather Stations






























Interactive Weather Map New forecast layout! Learn more

10-Day Weather Forecast

Advertisements
Track Severe Weather on mobile